sensor_id;sensor_type;location;lat;lon;timestamp;P1;durP1;ratioP1;P2;durP2;ratioP2
18455;SDS011;9357;49.900;8.208;2022-07-10T00:00:38;3.57;;;2.40;;
18455;SDS011;9357;49.900;8.208;2022-07-10T00:02:11;5.50;;;2.67;;
18455;SDS011;9357;49.900;8.208;2022-07-10T00:03:44;3.57;;;2.27;;
18455;SDS011;9357;49.900;8.208;2022-07-10T00:05:17;4.70;;;2.90;;
18455;SDS011;9357;49.900;8.208;2022-07-10T00:06:51;3.80;;;2.47;;
18455;SDS011;9357;49.900;8.208;2022-07-10T00:08:23;3.23;;;2.30;;
18455;SDS011;9357;49.900;8.208;2022-07-10T00:09:56;4.87;;;2.80;;
18455;SDS011;9357;49.900;8.208;2022-07-10T00:11:28;5.50;;;2.40;;
18455;SDS011;9357;49.900;8.208;2022-07-10T00:13:01;4.13;;;2.57;;
18455;SDS011;9357;49.900;8.208;2022-07-10T00:14:34;4.60;;;2.40;;
18455;SDS011;9357;49.900;8.208;2022-07-10T00:16:07;3.83;;;2.20;;
18455;SDS011;9357;49.900;8.208;2022-07-10T00:17:40;3.30;;;2.20;;
18455;SDS011;9357;49.900;8.208;2022-07-10T00:19:13;2.50;;;2.30;;
18455;SDS011;9357;49.900;8.208;2022-07-10T00:20:46;4.83;;;2.40;;
18455;SDS011;9357;49.900;8.208;2022-07-10T00:22:19;3.03;;;2.40;;
18455;SDS011;9357;49.900;8.208;2022-07-10T00:23:50;2.80;;;2.33;;
18455;SDS011;9357;49.900;8.208;2022-07-10T00:25:23;4.53;;;2.50;;
18455;SDS011;9357;49.900;8.208;2022-07-10T00:26:56;3.33;;;2.67;;
18455;SDS011;9357;49.900;8.208;2022-07-10T00:28:29;4.90;;;2.17;;
18455;SDS011;9357;49.900;8.208;2022-07-10T00:30:02;4.23;;;2.10;;
18455;SDS011;9357;49.900;8.208;2022-07-10T00:31:37;2.90;;;2.30;;
18455;SDS011;9357;49.900;8.208;2022-07-10T00:33:09;4.97;;;2.40;;
18455;SDS011;9357;49.900;8.208;2022-07-10T00:34:42;3.83;;;1.93;;
18455;SDS011;9357;49.900;8.208;2022-07-10T00:36:14;4.10;;;1.90;;
18455;SDS011;9357;49.900;8.208;2022-07-10T00:37:47;4.97;;;2.20;;
18455;SDS011;9357;49.900;8.208;2022-07-10T00:39:19;3.67;;;2.43;;
18455;SDS011;9357;49.900;8.208;2022-07-10T00:40:51;5.70;;;2.00;;
18455;SDS011;9357;49.900;8.208;2022-07-10T00:42:25;3.13;;;2.10;;
18455;SDS011;9357;49.900;8.208;2022-07-10T00:43:59;3.10;;;2.30;;
18455;SDS011;9357;49.900;8.208;2022-07-10T00:45:32;4.17;;;2.37;;
18455;SDS011;9357;49.900;8.208;2022-07-10T00:47:07;5.03;;;2.53;;
18455;SDS011;9357;49.900;8.208;2022-07-10T00:48:40;3.07;;;2.23;;
18455;SDS011;9357;49.900;8.208;2022-07-10T00:50:12;5.03;;;2.60;;
18455;SDS011;9357;49.900;8.208;2022-07-10T00:51:45;2.83;;;2.47;;
18455;SDS011;9357;49.900;8.208;2022-07-10T00:53:18;3.33;;;2.30;;
18455;SDS011;9357;49.900;8.208;2022-07-10T00:54:51;3.17;;;2.30;;
18455;SDS011;9357;49.900;8.208;2022-07-10T00:56:25;3.43;;;2.40;;
18455;SDS011;9357;49.900;8.208;2022-07-10T00:57:58;3.23;;;2.27;;
18455;SDS011;9357;49.900;8.208;2022-07-10T00:59:31;5.30;;;2.93;;
18455;SDS011;9357;49.900;8.208;2022-07-10T01:01:03;2.73;;;2.53;;
18455;SDS011;9357;49.900;8.208;2022-07-10T01:02:38;5.67;;;2.80;;
18455;SDS011;9357;49.900;8.208;2022-07-10T01:04:14;4.57;;;2.70;;
18455;SDS011;9357;49.900;8.208;2022-07-10T01:05:47;2.53;;;2.23;;
18455;SDS011;9357;49.900;8.208;2022-07-10T01:07:20;3.83;;;2.33;;
18455;SDS011;9357;49.900;8.208;2022-07-10T01:08:53;4.23;;;2.60;;
18455;SDS011;9357;49.900;8.208;2022-07-10T01:10:26;4.97;;;2.73;;
18455;SDS011;9357;49.900;8.208;2022-07-10T01:11:59;8.40;;;2.83;;
18455;SDS011;9357;49.900;8.208;2022-07-10T01:13:33;3.60;;;2.70;;
18455;SDS011;9357;49.900;8.208;2022-07-10T01:15:07;3.83;;;2.23;;
18455;SDS011;9357;49.900;8.208;2022-07-10T01:16:40;4.40;;;2.60;;
18455;SDS011;9357;49.900;8.208;2022-07-10T01:18:14;3.40;;;2.43;;
18455;SDS011;9357;49.900;8.208;2022-07-10T01:19:46;5.17;;;2.30;;
18455;SDS011;9357;49.900;8.208;2022-07-10T01:21:24;4.80;;;2.73;;
18455;SDS011;9357;49.900;8.208;2022-07-10T01:22:57;4.23;;;2.40;;
18455;SDS011;9357;49.900;8.208;2022-07-10T01:24:30;3.50;;;2.50;;
18455;SDS011;9357;49.900;8.208;2022-07-10T01:26:03;4.60;;;2.40;;
18455;SDS011;9357;49.900;8.208;2022-07-10T01:27:35;4.60;;;2.60;;
18455;SDS011;9357;49.900;8.208;2022-07-10T01:29:08;4.13;;;2.57;;
18455;SDS011;9357;49.900;8.208;2022-07-10T01:30:43;7.23;;;2.30;;
18455;SDS011;9357;49.900;8.208;2022-07-10T01:32:15;4.63;;;2.67;;
18455;SDS011;9357;49.900;8.208;2022-07-10T01:33:48;3.40;;;2.30;;
18455;SDS011;9357;49.900;8.208;2022-07-10T01:35:20;5.07;;;2.60;;
18455;SDS011;9357;49.900;8.208;2022-07-10T01:36:55;4.40;;;2.70;;
18455;SDS011;9357;49.900;8.208;2022-07-10T01:38:27;4.13;;;2.73;;
18455;SDS011;9357;49.900;8.208;2022-07-10T01:40:00;6.03;;;2.50;;
18455;SDS011;9357;49.900;8.208;2022-07-10T01:41:33;6.53;;;2.80;;
18455;SDS011;9357;49.900;8.208;2022-07-10T01:43:06;4.30;;;2.50;;
18455;SDS011;9357;49.900;8.208;2022-07-10T01:44:39;4.63;;;2.50;;
18455;SDS011;9357;49.900;8.208;2022-07-10T01:46:12;5.20;;;2.53;;
18455;SDS011;9357;49.900;8.208;2022-07-10T01:47:45;5.03;;;2.47;;
18455;SDS011;9357;49.900;8.208;2022-07-10T01:49:17;4.63;;;2.57;;
18455;SDS011;9357;49.900;8.208;2022-07-10T01:50:50;5.70;;;2.50;;
18455;SDS011;9357;49.900;8.208;2022-07-10T01:52:24;3.13;;;2.37;;
18455;SDS011;9357;49.900;8.208;2022-07-10T01:53:57;5.80;;;2.60;;
18455;SDS011;9357;49.900;8.208;2022-07-10T01:55:30;5.90;;;2.70;;
18455;SDS011;9357;49.900;8.208;2022-07-10T01:57:02;4.27;;;2.40;;
18455;SDS011;9357;49.900;8.208;2022-07-10T01:58:36;5.70;;;2.40;;
18455;SDS011;9357;49.900;8.208;2022-07-10T02:00:09;4.87;;;2.63;;
18455;SDS011;9357;49.900;8.208;2022-07-10T02:01:42;4.60;;;2.50;;
18455;SDS011;9357;49.900;8.208;2022-07-10T02:03:15;6.23;;;2.60;;
18455;SDS011;9357;49.900;8.208;2022-07-10T02:05:06;3.63;;;2.10;;
18455;SDS011;9357;49.900;8.208;2022-07-10T02:06:38;4.80;;;2.60;;
18455;SDS011;9357;49.900;8.208;2022-07-10T02:08:13;3.87;;;2.20;;
18455;SDS011;9357;49.900;8.208;2022-07-10T02:09:45;2.40;;;2.20;;
18455;SDS011;9357;49.900;8.208;2022-07-10T02:11:18;4.30;;;2.50;;
18455;SDS011;9357;49.900;8.208;2022-07-10T02:12:51;3.93;;;2.27;;
18455;SDS011;9357;49.900;8.208;2022-07-10T02:14:24;4.13;;;2.40;;
18455;SDS011;9357;49.900;8.208;2022-07-10T02:15:57;4.40;;;2.13;;
18455;SDS011;9357;49.900;8.208;2022-07-10T02:17:29;3.80;;;2.10;;
18455;SDS011;9357;49.900;8.208;2022-07-10T02:19:02;3.57;;;2.17;;
18455;SDS011;9357;49.900;8.208;2022-07-10T02:20:35;2.97;;;2.20;;
18455;SDS011;9357;49.900;8.208;2022-07-10T02:22:07;4.73;;;2.30;;
18455;SDS011;9357;49.900;8.208;2022-07-10T02:23:41;4.47;;;2.30;;
18455;SDS011;9357;49.900;8.208;2022-07-10T02:25:13;4.07;;;2.10;;
18455;SDS011;9357;49.900;8.208;2022-07-10T02:26:46;5.20;;;2.33;;
18455;SDS011;9357;49.900;8.208;2022-07-10T02:28:18;4.17;;;2.20;;
18455;SDS011;9357;49.900;8.208;2022-07-10T02:29:51;6.07;;;2.40;;
18455;SDS011;9357;49.900;8.208;2022-07-10T02:31:24;2.90;;;2.10;;
18455;SDS011;9357;49.900;8.208;2022-07-10T02:32:57;3.17;;;2.20;;
18455;SDS011;9357;49.900;8.208;2022-07-10T02:34:30;4.87;;;2.13;;
18455;SDS011;9357;49.900;8.208;2022-07-10T02:36:03;4.90;;;2.60;;
18455;SDS011;9357;49.900;8.208;2022-07-10T02:37:36;5.87;;;2.20;;
18455;SDS011;9357;49.900;8.208;2022-07-10T02:39:10;3.37;;;2.20;;
18455;SDS011;9357;49.900;8.208;2022-07-10T02:40:43;3.33;;;2.10;;
18455;SDS011;9357;49.900;8.208;2022-07-10T02:42:15;3.00;;;2.00;;
18455;SDS011;9357;49.900;8.208;2022-07-10T02:43:48;4.03;;;1.93;;
18455;SDS011;9357;49.900;8.208;2022-07-10T02:45:20;4.07;;;2.07;;
18455;SDS011;9357;49.900;8.208;2022-07-10T02:46:52;3.97;;;2.03;;
18455;SDS011;9357;49.900;8.208;2022-07-10T02:48:24;3.47;;;2.33;;
18455;SDS011;9357;49.900;8.208;2022-07-10T02:49:58;3.30;;;1.80;;
18455;SDS011;9357;49.900;8.208;2022-07-10T02:51:30;2.37;;;1.87;;
18455;SDS011;9357;49.900;8.208;2022-07-10T02:53:03;4.03;;;2.10;;
18455;SDS011;9357;49.900;8.208;2022-07-10T02:54:37;4.60;;;2.20;;
18455;SDS011;9357;49.900;8.208;2022-07-10T02:56:10;2.70;;;2.10;;
18455;SDS011;9357;49.900;8.208;2022-07-10T02:57:42;3.97;;;2.10;;
18455;SDS011;9357;49.900;8.208;2022-07-10T02:59:15;3.93;;;2.03;;
18455;SDS011;9357;49.900;8.208;2022-07-10T03:00:48;2.63;;;2.00;;
18455;SDS011;9357;49.900;8.208;2022-07-10T03:02:21;6.20;;;2.10;;
18455;SDS011;9357;49.900;8.208;2022-07-10T03:03:54;3.23;;;2.10;;
18455;SDS011;9357;49.900;8.208;2022-07-10T03:05:26;3.83;;;2.13;;
18455;SDS011;9357;49.900;8.208;2022-07-10T03:06:59;4.43;;;2.30;;
18455;SDS011;9357;49.900;8.208;2022-07-10T03:08:32;5.07;;;2.27;;
18455;SDS011;9357;49.900;8.208;2022-07-10T03:10:06;4.87;;;2.17;;
18455;SDS011;9357;49.900;8.208;2022-07-10T03:11:39;3.23;;;2.17;;
18455;SDS011;9357;49.900;8.208;2022-07-10T03:13:12;4.40;;;1.97;;
18455;SDS011;9357;49.900;8.208;2022-07-10T03:14:45;4.53;;;2.17;;
18455;SDS011;9357;49.900;8.208;2022-07-10T03:16:18;4.63;;;2.30;;
18455;SDS011;9357;49.900;8.208;2022-07-10T03:17:50;2.63;;;1.87;;
18455;SDS011;9357;49.900;8.208;2022-07-10T03:19:23;4.33;;;2.10;;
18455;SDS011;9357;49.900;8.208;2022-07-10T03:20:55;5.17;;;2.00;;
18455;SDS011;9357;49.900;8.208;2022-07-10T03:22:28;2.80;;;1.70;;
18455;SDS011;9357;49.900;8.208;2022-07-10T03:24:02;4.23;;;2.07;;
18455;SDS011;9357;49.900;8.208;2022-07-10T03:25:36;3.47;;;1.97;;
18455;SDS011;9357;49.900;8.208;2022-07-10T03:27:09;5.70;;;2.07;;
18455;SDS011;9357;49.900;8.208;2022-07-10T03:28:41;5.87;;;2.00;;
18455;SDS011;9357;49.900;8.208;2022-07-10T03:30:14;2.97;;;1.90;;
18455;SDS011;9357;49.900;8.208;2022-07-10T03:31:47;3.97;;;2.20;;
18455;SDS011;9357;49.900;8.208;2022-07-10T03:33:20;3.17;;;1.87;;
18455;SDS011;9357;49.900;8.208;2022-07-10T03:34:53;3.67;;;1.90;;
18455;SDS011;9357;49.900;8.208;2022-07-10T03:36:25;3.43;;;1.90;;
18455;SDS011;9357;49.900;8.208;2022-07-10T03:37:58;5.00;;;2.10;;
18455;SDS011;9357;49.900;8.208;2022-07-10T03:39:31;4.57;;;2.10;;
18455;SDS011;9357;49.900;8.208;2022-07-10T03:41:05;4.40;;;1.87;;
18455;SDS011;9357;49.900;8.208;2022-07-10T03:42:38;5.67;;;2.20;;
18455;SDS011;9357;49.900;8.208;2022-07-10T03:44:11;5.23;;;2.13;;
18455;SDS011;9357;49.900;8.208;2022-07-10T03:45:43;4.57;;;1.90;;
18455;SDS011;9357;49.900;8.208;2022-07-10T03:47:15;4.20;;;1.80;;
18455;SDS011;9357;49.900;8.208;2022-07-10T03:48:48;2.27;;;2.00;;
18455;SDS011;9357;49.900;8.208;2022-07-10T03:50:21;3.13;;;1.80;;
18455;SDS011;9357;49.900;8.208;2022-07-10T03:51:54;2.13;;;1.53;;
18455;SDS011;9357;49.900;8.208;2022-07-10T03:53:30;4.60;;;1.90;;
18455;SDS011;9357;49.900;8.208;2022-07-10T03:55:02;2.97;;;1.73;;
18455;SDS011;9357;49.900;8.208;2022-07-10T03:56:36;3.20;;;1.67;;
18455;SDS011;9357;49.900;8.208;2022-07-10T03:58:26;4.87;;;1.97;;
18455;SDS011;9357;49.900;8.208;2022-07-10T03:59:58;4.30;;;1.83;;
18455;SDS011;9357;49.900;8.208;2022-07-10T04:01:31;2.57;;;1.53;;
18455;SDS011;9357;49.900;8.208;2022-07-10T04:03:05;3.00;;;1.80;;
18455;SDS011;9357;49.900;8.208;2022-07-10T04:04:39;2.30;;;1.77;;
18455;SDS011;9357;49.900;8.208;2022-07-10T04:06:11;3.33;;;1.70;;
18455;SDS011;9357;49.900;8.208;2022-07-10T04:07:43;3.90;;;1.90;;
18455;SDS011;9357;49.900;8.208;2022-07-10T04:09:16;2.57;;;1.83;;
18455;SDS011;9357;49.900;8.208;2022-07-10T04:10:49;3.10;;;1.60;;
18455;SDS011;9357;49.900;8.208;2022-07-10T04:12:23;3.20;;;1.80;;
18455;SDS011;9357;49.900;8.208;2022-07-10T04:13:56;2.27;;;1.73;;
18455;SDS011;9357;49.900;8.208;2022-07-10T04:15:29;4.40;;;1.77;;
18455;SDS011;9357;49.900;8.208;2022-07-10T04:17:02;5.43;;;1.90;;
18455;SDS011;9357;49.900;8.208;2022-07-10T04:18:35;2.70;;;1.80;;
18455;SDS011;9357;49.900;8.208;2022-07-10T04:20:09;5.60;;;2.00;;
18455;SDS011;9357;49.900;8.208;2022-07-10T04:21:42;2.03;;;1.60;;
18455;SDS011;9357;49.900;8.208;2022-07-10T04:23:15;4.73;;;2.07;;
18455;SDS011;9357;49.900;8.208;2022-07-10T04:24:49;2.43;;;1.60;;
18455;SDS011;9357;49.900;8.208;2022-07-10T04:26:21;5.20;;;1.90;;
18455;SDS011;9357;49.900;8.208;2022-07-10T04:27:55;5.33;;;1.53;;
18455;SDS011;9357;49.900;8.208;2022-07-10T04:29:28;2.47;;;1.47;;
18455;SDS011;9357;49.900;8.208;2022-07-10T04:31:00;4.07;;;1.70;;
18455;SDS011;9357;49.900;8.208;2022-07-10T04:32:33;2.77;;;1.80;;
18455;SDS011;9357;49.900;8.208;2022-07-10T04:34:06;3.23;;;1.50;;
18455;SDS011;9357;49.900;8.208;2022-07-10T04:35:39;2.53;;;1.90;;
18455;SDS011;9357;49.900;8.208;2022-07-10T04:37:11;3.53;;;1.60;;
18455;SDS011;9357;49.900;8.208;2022-07-10T04:38:44;5.13;;;1.67;;
18455;SDS011;9357;49.900;8.208;2022-07-10T04:40:17;2.53;;;1.67;;
18455;SDS011;9357;49.900;8.208;2022-07-10T04:41:50;2.47;;;1.70;;
18455;SDS011;9357;49.900;8.208;2022-07-10T04:43:24;1.90;;;1.67;;
18455;SDS011;9357;49.900;8.208;2022-07-10T04:44:57;3.97;;;1.70;;
18455;SDS011;9357;49.900;8.208;2022-07-10T04:46:30;2.50;;;1.60;;
18455;SDS011;9357;49.900;8.208;2022-07-10T04:48:03;1.93;;;1.60;;
18455;SDS011;9357;49.900;8.208;2022-07-10T04:49:36;4.83;;;1.60;;
18455;SDS011;9357;49.900;8.208;2022-07-10T04:51:08;2.27;;;1.70;;
18455;SDS011;9357;49.900;8.208;2022-07-10T04:52:41;5.00;;;1.80;;
18455;SDS011;9357;49.900;8.208;2022-07-10T04:54:14;1.93;;;1.40;;
18455;SDS011;9357;49.900;8.208;2022-07-10T04:55:47;4.77;;;1.90;;
18455;SDS011;9357;49.900;8.208;2022-07-10T04:57:20;2.43;;;1.53;;
18455;SDS011;9357;49.900;8.208;2022-07-10T04:58:54;3.67;;;1.70;;
18455;SDS011;9357;49.900;8.208;2022-07-10T05:00:27;3.03;;;1.50;;
18455;SDS011;9357;49.900;8.208;2022-07-10T05:01:59;2.77;;;1.43;;
18455;SDS011;9357;49.900;8.208;2022-07-10T05:03:32;4.93;;;1.80;;
18455;SDS011;9357;49.900;8.208;2022-07-10T05:05:05;2.73;;;1.40;;
18455;SDS011;9357;49.900;8.208;2022-07-10T05:06:38;4.17;;;1.50;;
18455;SDS011;9357;49.900;8.208;2022-07-10T05:08:11;2.20;;;1.30;;
18455;SDS011;9357;49.900;8.208;2022-07-10T05:09:44;3.23;;;1.60;;
18455;SDS011;9357;49.900;8.208;2022-07-10T05:11:17;1.93;;;1.47;;
18455;SDS011;9357;49.900;8.208;2022-07-10T05:12:49;3.47;;;1.50;;
18455;SDS011;9357;49.900;8.208;2022-07-10T05:14:24;3.90;;;1.40;;
18455;SDS011;9357;49.900;8.208;2022-07-10T05:15:58;4.00;;;1.80;;
18455;SDS011;9357;49.900;8.208;2022-07-10T05:17:30;3.40;;;1.40;;
18455;SDS011;9357;49.900;8.208;2022-07-10T05:19:03;3.30;;;1.50;;
18455;SDS011;9357;49.900;8.208;2022-07-10T05:20:35;2.50;;;1.40;;
18455;SDS011;9357;49.900;8.208;2022-07-10T05:22:12;3.70;;;1.33;;
18455;SDS011;9357;49.900;8.208;2022-07-10T05:23:45;2.07;;;1.43;;
18455;SDS011;9357;49.900;8.208;2022-07-10T05:25:18;4.13;;;1.50;;
18455;SDS011;9357;49.900;8.208;2022-07-10T05:26:50;2.53;;;1.70;;
18455;SDS011;9357;49.900;8.208;2022-07-10T05:28:22;5.23;;;1.63;;
18455;SDS011;9357;49.900;8.208;2022-07-10T05:29:57;4.87;;;1.83;;
18455;SDS011;9357;49.900;8.208;2022-07-10T05:31:28;3.27;;;1.30;;
18455;SDS011;9357;49.900;8.208;2022-07-10T05:33:01;1.83;;;1.40;;
18455;SDS011;9357;49.900;8.208;2022-07-10T05:34:34;3.87;;;1.30;;
18455;SDS011;9357;49.900;8.208;2022-07-10T05:36:07;4.50;;;1.67;;
18455;SDS011;9357;49.900;8.208;2022-07-10T05:37:40;3.17;;;1.60;;
18455;SDS011;9357;49.900;8.208;2022-07-10T05:39:13;3.80;;;1.57;;
18455;SDS011;9357;49.900;8.208;2022-07-10T05:40:46;3.93;;;1.50;;
18455;SDS011;9357;49.900;8.208;2022-07-10T05:42:20;4.27;;;1.30;;
18455;SDS011;9357;49.900;8.208;2022-07-10T05:43:52;3.37;;;1.20;;
18455;SDS011;9357;49.900;8.208;2022-07-10T05:45:27;4.27;;;1.53;;
18455;SDS011;9357;49.900;8.208;2022-07-10T05:47:00;4.37;;;1.30;;
18455;SDS011;9357;49.900;8.208;2022-07-10T05:48:33;4.30;;;1.60;;
18455;SDS011;9357;49.900;8.208;2022-07-10T05:50:05;5.77;;;1.60;;
18455;SDS011;9357;49.900;8.208;2022-07-10T05:51:39;2.63;;;1.60;;
18455;SDS011;9357;49.900;8.208;2022-07-10T05:53:15;5.20;;;1.60;;
18455;SDS011;9357;49.900;8.208;2022-07-10T05:54:50;2.07;;;1.17;;
18455;SDS011;9357;49.900;8.208;2022-07-10T05:56:23;2.87;;;1.20;;
18455;SDS011;9357;49.900;8.208;2022-07-10T05:57:55;2.63;;;1.33;;
18455;SDS011;9357;49.900;8.208;2022-07-10T05:59:32;2.33;;;1.30;;
18455;SDS011;9357;49.900;8.208;2022-07-10T06:01:06;2.73;;;1.30;;
18455;SDS011;9357;49.900;8.208;2022-07-10T06:02:38;2.83;;;1.40;;
18455;SDS011;9357;49.900;8.208;2022-07-10T06:04:11;3.00;;;1.20;;
18455;SDS011;9357;49.900;8.208;2022-07-10T06:05:44;3.10;;;1.50;;
18455;SDS011;9357;49.900;8.208;2022-07-10T06:07:18;2.83;;;1.30;;
18455;SDS011;9357;49.900;8.208;2022-07-10T06:08:51;2.33;;;1.30;;
18455;SDS011;9357;49.900;8.208;2022-07-10T06:10:24;3.50;;;1.40;;
18455;SDS011;9357;49.900;8.208;2022-07-10T06:11:57;2.33;;;1.20;;
18455;SDS011;9357;49.900;8.208;2022-07-10T06:13:29;1.93;;;1.20;;
18455;SDS011;9357;49.900;8.208;2022-07-10T06:15:02;3.00;;;1.20;;
18455;SDS011;9357;49.900;8.208;2022-07-10T06:16:37;3.10;;;1.30;;
18455;SDS011;9357;49.900;8.208;2022-07-10T06:18:10;2.60;;;1.30;;
18455;SDS011;9357;49.900;8.208;2022-07-10T06:19:43;3.90;;;1.50;;
18455;SDS011;9357;49.900;8.208;2022-07-10T06:21:15;2.20;;;1.33;;
18455;SDS011;9357;49.900;8.208;2022-07-10T06:22:52;2.80;;;1.50;;
18455;SDS011;9357;49.900;8.208;2022-07-10T06:24:25;3.33;;;1.27;;
18455;SDS011;9357;49.900;8.208;2022-07-10T06:25:58;3.63;;;1.30;;
18455;SDS011;9357;49.900;8.208;2022-07-10T06:27:31;3.90;;;1.20;;
18455;SDS011;9357;49.900;8.208;2022-07-10T06:29:04;3.17;;;1.30;;
18455;SDS011;9357;49.900;8.208;2022-07-10T06:30:38;2.40;;;1.10;;
18455;SDS011;9357;49.900;8.208;2022-07-10T06:32:12;2.27;;;1.03;;
18455;SDS011;9357;49.900;8.208;2022-07-10T06:33:45;2.73;;;1.37;;
18455;SDS011;9357;49.900;8.208;2022-07-10T06:35:17;4.03;;;1.30;;
18455;SDS011;9357;49.900;8.208;2022-07-10T06:36:50;3.10;;;1.10;;
18455;SDS011;9357;49.900;8.208;2022-07-10T06:38:23;2.83;;;1.00;;
18455;SDS011;9357;49.900;8.208;2022-07-10T06:39:56;2.53;;;1.00;;
18455;SDS011;9357;49.900;8.208;2022-07-10T06:41:29;3.90;;;1.00;;
18455;SDS011;9357;49.900;8.208;2022-07-10T06:43:01;5.00;;;1.20;;
18455;SDS011;9357;49.900;8.208;2022-07-10T06:44:34;2.27;;;1.10;;
18455;SDS011;9357;49.900;8.208;2022-07-10T06:46:05;4.40;;;1.20;;
18455;SDS011;9357;49.900;8.208;2022-07-10T06:47:40;1.73;;;0.97;;
18455;SDS011;9357;49.900;8.208;2022-07-10T06:49:28;2.77;;;1.10;;
18455;SDS011;9357;49.900;8.208;2022-07-10T06:51:01;4.23;;;0.87;;
18455;SDS011;9357;49.900;8.208;2022-07-10T06:52:37;1.47;;;0.97;;
18455;SDS011;9357;49.900;8.208;2022-07-10T06:54:10;3.30;;;1.20;;
18455;SDS011;9357;49.900;8.208;2022-07-10T06:55:43;2.93;;;0.93;;
18455;SDS011;9357;49.900;8.208;2022-07-10T06:57:16;2.77;;;1.20;;
18455;SDS011;9357;49.900;8.208;2022-07-10T06:58:50;2.67;;;1.27;;
18455;SDS011;9357;49.900;8.208;2022-07-10T07:00:25;3.20;;;1.30;;
18455;SDS011;9357;49.900;8.208;2022-07-10T07:01:58;2.07;;;1.00;;
18455;SDS011;9357;49.900;8.208;2022-07-10T07:03:32;2.47;;;0.93;;
18455;SDS011;9357;49.900;8.208;2022-07-10T07:05:05;4.20;;;1.20;;
18455;SDS011;9357;49.900;8.208;2022-07-10T07:06:38;2.77;;;1.03;;
18455;SDS011;9357;49.900;8.208;2022-07-10T07:08:11;2.50;;;0.90;;
18455;SDS011;9357;49.900;8.208;2022-07-10T07:09:45;1.50;;;0.77;;
18455;SDS011;9357;49.900;8.208;2022-07-10T07:11:20;2.20;;;0.87;;
18455;SDS011;9357;49.900;8.208;2022-07-10T07:12:53;2.67;;;1.07;;
18455;SDS011;9357;49.900;8.208;2022-07-10T07:14:26;2.80;;;1.10;;
18455;SDS011;9357;49.900;8.208;2022-07-10T07:16:05;2.43;;;0.87;;
18455;SDS011;9357;49.900;8.208;2022-07-10T07:17:41;2.57;;;1.00;;
18455;SDS011;9357;49.900;8.208;2022-07-10T07:19:39;2.20;;;0.80;;
18455;SDS011;9357;49.900;8.208;2022-07-10T07:21:26;1.60;;;0.80;;
18455;SDS011;9357;49.900;8.208;2022-07-10T07:23:17;2.30;;;1.10;;
18455;SDS011;9357;49.900;8.208;2022-07-10T07:24:50;2.40;;;0.80;;
18455;SDS011;9357;49.900;8.208;2022-07-10T07:26:22;2.90;;;0.90;;
18455;SDS011;9357;49.900;8.208;2022-07-10T07:27:54;1.23;;;0.90;;
18455;SDS011;9357;49.900;8.208;2022-07-10T07:29:27;2.93;;;1.00;;
18455;SDS011;9357;49.900;8.208;2022-07-10T07:31:00;1.53;;;0.80;;
18455;SDS011;9357;49.900;8.208;2022-07-10T07:32:33;1.50;;;0.80;;
18455;SDS011;9357;49.900;8.208;2022-07-10T07:34:06;0.80;;;0.80;;
18455;SDS011;9357;49.900;8.208;2022-07-10T07:35:41;1.80;;;0.80;;
18455;SDS011;9357;49.900;8.208;2022-07-10T07:37:15;2.07;;;0.90;;
18455;SDS011;9357;49.900;8.208;2022-07-10T07:38:47;3.10;;;1.00;;
18455;SDS011;9357;49.900;8.208;2022-07-10T07:40:21;2.57;;;0.90;;
18455;SDS011;9357;49.900;8.208;2022-07-10T07:41:54;4.00;;;1.00;;
18455;SDS011;9357;49.900;8.208;2022-07-10T07:43:27;2.20;;;0.90;;
18455;SDS011;9357;49.900;8.208;2022-07-10T07:45:00;1.30;;;0.73;;
18455;SDS011;9357;49.900;8.208;2022-07-10T07:46:33;2.00;;;0.90;;
18455;SDS011;9357;49.900;8.208;2022-07-10T07:48:06;1.67;;;0.90;;
18455;SDS011;9357;49.900;8.208;2022-07-10T07:49:40;2.47;;;0.80;;
18455;SDS011;9357;49.900;8.208;2022-07-10T07:51:13;1.23;;;0.80;;
18455;SDS011;9357;49.900;8.208;2022-07-10T07:52:46;1.73;;;1.00;;
18455;SDS011;9357;49.900;8.208;2022-07-10T07:54:18;2.30;;;1.03;;
18455;SDS011;9357;49.900;8.208;2022-07-10T07:55:51;1.53;;;0.90;;
18455;SDS011;9357;49.900;8.208;2022-07-10T07:57:25;1.40;;;0.90;;
18455;SDS011;9357;49.900;8.208;2022-07-10T07:58:58;1.87;;;0.83;;
18455;SDS011;9357;49.900;8.208;2022-07-10T08:00:31;1.60;;;0.90;;
18455;SDS011;9357;49.900;8.208;2022-07-10T08:02:04;3.10;;;0.90;;
18455;SDS011;9357;49.900;8.208;2022-07-10T08:03:37;2.60;;;0.80;;
18455;SDS011;9357;49.900;8.208;2022-07-10T08:05:30;2.63;;;0.90;;
18455;SDS011;9357;49.900;8.208;2022-07-10T08:07:05;2.33;;;0.83;;
18455;SDS011;9357;49.900;8.208;2022-07-10T08:08:37;1.23;;;0.70;;
18455;SDS011;9357;49.900;8.208;2022-07-10T08:10:11;2.37;;;1.00;;
18455;SDS011;9357;49.900;8.208;2022-07-10T08:11:46;1.50;;;0.80;;
18455;SDS011;9357;49.900;8.208;2022-07-10T08:13:19;1.23;;;0.60;;
18455;SDS011;9357;49.900;8.208;2022-07-10T08:14:52;2.27;;;0.97;;
18455;SDS011;9357;49.900;8.208;2022-07-10T08:16:25;1.97;;;0.80;;
18455;SDS011;9357;49.900;8.208;2022-07-10T08:17:58;3.23;;;1.07;;
18455;SDS011;9357;49.900;8.208;2022-07-10T08:19:32;1.03;;;0.70;;
18455;SDS011;9357;49.900;8.208;2022-07-10T08:21:05;1.80;;;0.87;;
18455;SDS011;9357;49.900;8.208;2022-07-10T08:22:39;1.97;;;0.73;;
18455;SDS011;9357;49.900;8.208;2022-07-10T08:24:12;2.80;;;0.97;;
18455;SDS011;9357;49.900;8.208;2022-07-10T08:25:46;1.80;;;0.80;;
18455;SDS011;9357;49.900;8.208;2022-07-10T08:27:19;1.77;;;0.80;;
18455;SDS011;9357;49.900;8.208;2022-07-10T08:28:52;2.83;;;0.83;;
18455;SDS011;9357;49.900;8.208;2022-07-10T08:30:24;2.67;;;0.90;;
18455;SDS011;9357;49.900;8.208;2022-07-10T08:31:57;0.93;;;0.80;;
18455;SDS011;9357;49.900;8.208;2022-07-10T08:33:30;2.97;;;1.10;;
18455;SDS011;9357;49.900;8.208;2022-07-10T08:35:03;1.23;;;0.70;;
18455;SDS011;9357;49.900;8.208;2022-07-10T08:36:37;1.70;;;0.73;;
18455;SDS011;9357;49.900;8.208;2022-07-10T08:38:15;1.60;;;0.90;;
18455;SDS011;9357;49.900;8.208;2022-07-10T08:39:48;3.63;;;1.17;;
18455;SDS011;9357;49.900;8.208;2022-07-10T08:41:22;2.93;;;1.10;;
18455;SDS011;9357;49.900;8.208;2022-07-10T08:42:58;2.10;;;1.00;;
18455;SDS011;9357;49.900;8.208;2022-07-10T08:44:30;1.33;;;1.10;;
18455;SDS011;9357;49.900;8.208;2022-07-10T08:46:04;2.33;;;1.20;;
18455;SDS011;9357;49.900;8.208;2022-07-10T08:47:37;2.40;;;0.97;;
18455;SDS011;9357;49.900;8.208;2022-07-10T08:49:12;1.97;;;1.10;;
18455;SDS011;9357;49.900;8.208;2022-07-10T08:50:46;3.00;;;1.10;;
18455;SDS011;9357;49.900;8.208;2022-07-10T08:52:23;2.67;;;1.00;;
18455;SDS011;9357;49.900;8.208;2022-07-10T08:53:59;3.87;;;1.60;;
18455;SDS011;9357;49.900;8.208;2022-07-10T08:55:33;3.73;;;1.40;;
18455;SDS011;9357;49.900;8.208;2022-07-10T08:57:07;3.83;;;1.50;;
18455;SDS011;9357;49.900;8.208;2022-07-10T08:58:41;3.30;;;1.37;;
18455;SDS011;9357;49.900;8.208;2022-07-10T09:00:15;6.93;;;3.03;;
18455;SDS011;9357;49.900;8.208;2022-07-10T09:01:48;3.00;;;1.77;;
18455;SDS011;9357;49.900;8.208;2022-07-10T09:03:21;10.10;;;2.90;;
18455;SDS011;9357;49.900;8.208;2022-07-10T09:04:54;4.27;;;1.43;;
18455;SDS011;9357;49.900;8.208;2022-07-10T09:06:27;4.77;;;1.47;;
18455;SDS011;9357;49.900;8.208;2022-07-10T09:08:02;3.50;;;1.30;;
18455;SDS011;9357;49.900;8.208;2022-07-10T09:11:37;5.83;;;1.60;;
18455;SDS011;9357;49.900;8.208;2022-07-10T09:13:11;5.43;;;1.50;;
18455;SDS011;9357;49.900;8.208;2022-07-10T09:14:44;4.53;;;1.50;;
18455;SDS011;9357;49.900;8.208;2022-07-10T09:16:26;6.27;;;1.70;;
18455;SDS011;9357;49.900;8.208;2022-07-10T09:18:00;4.40;;;1.50;;
18455;SDS011;9357;49.900;8.208;2022-07-10T09:19:34;2.93;;;1.27;;
18455;SDS011;9357;49.900;8.208;2022-07-10T09:21:07;6.33;;;1.60;;
18455;SDS011;9357;49.900;8.208;2022-07-10T09:22:42;4.97;;;1.40;;
18455;SDS011;9357;49.900;8.208;2022-07-10T09:24:15;3.03;;;1.33;;
18455;SDS011;9357;49.900;8.208;2022-07-10T09:25:52;2.33;;;1.30;;
18455;SDS011;9357;49.900;8.208;2022-07-10T09:27:26;2.20;;;1.27;;
18455;SDS011;9357;49.900;8.208;2022-07-10T09:29:06;3.13;;;1.30;;
18455;SDS011;9357;49.900;8.208;2022-07-10T09:30:41;3.67;;;1.20;;
18455;SDS011;9357;49.900;8.208;2022-07-10T09:32:14;2.70;;;1.30;;
18455;SDS011;9357;49.900;8.208;2022-07-10T09:33:48;2.27;;;1.10;;